Time;durP1;ratioP1;P1;durP2;ratioP2;P2;SDS_P1;SDS_P2;PMS_P1;PMS_P2;Temp;Humidity;BMP_temperature;BMP_pressure;BME280_temperature;BME280_humidity;BME280_pressure;Samples;Min_cycle;Max_cycle;Signal;HPM_P1;HPM_P2
2022/01/22 00:00:47;;;;;;;9.48;6.97;;;3.60;99.90;;;;;;5022208;28;20212;-79
2022/01/22 00:03:14;;;;;;;8.52;6.20;;;3.60;99.90;;;;;;5024770;28;20211;-78
2022/01/22 00:05:40;;;;;;;8.27;6.10;;;3.60;99.90;;;;;;5023399;28;20630;-77
2022/01/22 00:08:08;;;;;;;7.82;5.47;;;3.70;99.90;;;;;;5017870;28;20576;-77
2022/01/22 00:10:40;;;;;;;10.85;6.25;;;3.60;99.90;;;;;;5017505;28;20208;-77
2022/01/22 00:14:23;;;;;;;12.15;7.35;;;3.70;99.90;;;;;;5020581;28;20196;-78
2022/01/22 00:15:54;;;;;;;8.45;5.85;;;3.70;99.90;;;;;;5024947;28;20224;-78
2022/01/22 00:18:20;;;;;;;10.27;7.57;;;3.80;99.90;;;;;;5016932;28;20212;-77
2022/01/22 00:20:47;;;;;;;9.15;6.40;;;3.80;99.90;;;;;;5017571;28;20232;-77
2022/01/22 00:23:15;;;;;;;10.55;5.50;;;3.80;99.90;;;;;;5016804;28;20208;-77
2022/01/22 00:25:43;;;;;;;9.27;6.57;;;3.80;99.90;;;;;;5017016;28;20227;-77
2022/01/22 00:28:10;;;;;;;7.78;6.15;;;3.80;99.90;;;;;;5018148;28;20236;-77
2022/01/22 00:30:36;;;;;;;9.25;6.55;;;3.80;99.90;;;;;;5018215;28;20650;-77
2022/01/22 00:33:03;;;;;;;9.50;6.82;;;3.80;99.90;;;;;;5017750;28;20208;-77
2022/01/22 00:35:30;;;;;;;11.18;6.85;;;3.80;99.90;;;;;;5024861;28;20274;-78
2022/01/22 00:37:56;;;;;;;12.30;7.95;;;3.80;99.90;;;;;;5041220;22;20722;-79
2022/01/22 00:40:23;;;;;;;9.30;6.60;;;3.80;99.90;;;;;;5038236;28;20204;-80
2022/01/22 00:42:51;;;;;;;10.75;4.93;;;3.80;99.90;;;;;;5026772;28;20208;-78
2022/01/22 00:45:20;;;;;;;12.18;7.43;;;3.80;99.90;;;;;;5022507;28;20569;-79
2022/01/22 00:47:47;;;;;;;9.18;6.15;;;3.80;99.90;;;;;;5021203;28;20251;-79
2022/01/22 00:50:16;;;;;;;11.30;7.15;;;3.80;99.90;;;;;;5022738;28;20663;-80
2022/01/22 00:52:44;;;;;;;13.57;8.07;;;3.80;99.90;;;;;;5029111;28;20224;-78
2022/01/22 00:55:12;;;;;;;10.80;7.82;;;3.90;99.90;;;;;;5019098;28;20262;-79
2022/01/22 00:57:39;;;;;;;13.30;8.15;;;3.60;99.90;;;;;;5019201;28;20648;-80
2022/01/22 01:00:09;;;;;;;12.90;9.27;;;3.90;99.90;;;;;;5027089;28;20200;-79
2022/01/22 01:02:36;;;;;;;14.43;9.40;;;4.10;99.90;;;;;;5023223;28;20247;-79
2022/01/22 01:05:04;;;;;;;12.80;8.30;;;3.90;99.90;;;;;;5021627;28;20259;-80
2022/01/22 01:07:31;;;;;;;12.18;8.85;;;3.90;99.90;;;;;;5021542;28;20232;-77
2022/01/22 01:09:58;;;;;;;13.73;8.82;;;3.90;99.90;;;;;;5023059;28;20235;-79
2022/01/22 01:12:25;;;;;;;13.73;9.63;;;3.90;99.90;;;;;;5029209;28;20204;-78
2022/01/22 01:15:08;;;;;;;14.82;9.45;;;3.90;99.90;;;;;;5026544;28;20677;-78
2022/01/22 01:17:57;;;;;;;17.27;9.25;;;3.90;99.90;;;;;;5030111;28;20224;-78
2022/01/22 01:34:09;;;;;;;11.13;6.30;;;4.00;99.90;;;;;;5024973;28;20263;-78
2022/01/22 01:36:36;;;;;;;8.40;6.60;;;4.00;99.90;;;;;;5024495;28;20216;-79
2022/01/22 01:39:05;;;;;;;7.80;5.15;;;4.00;99.90;;;;;;5022265;28;20240;-78
2022/01/22 01:41:39;;;;;;;7.70;4.82;;;4.20;99.90;;;;;;5024283;28;20232;-78
2022/01/22 01:44:06;;;;;;;8.20;5.88;;;4.00;99.90;;;;;;5025027;28;20197;-79
2022/01/22 01:46:33;;;;;;;6.05;4.35;;;4.00;99.90;;;;;;5020531;28;20238;-79
2022/01/22 01:49:03;;;;;;;7.00;4.40;;;3.90;99.90;;;;;;5021394;28;20239;-78
2022/01/22 01:51:32;;;;;;;5.88;4.57;;;3.90;99.90;;;;;;5024558;28;20208;-79
2022/01/22 01:54:10;;;;;;;7.10;5.00;;;3.90;99.90;;;;;;5026140;28;20214;-78
2022/01/22 01:59:21;;;;;;;5.25;4.10;;;4.00;99.90;;;;;;5022038;28;20230;-79
2022/01/22 02:01:47;;;;;;;8.25;5.25;;;4.00;99.90;;;;;;5025180;28;20200;-78
2022/01/22 02:04:15;;;;;;;5.10;4.30;;;4.00;99.90;;;;;;5035258;28;20188;-78
2022/01/22 02:06:42;;;;;;;7.50;5.38;;;4.30;99.90;;;;;;5038966;28;20231;-78
2022/01/22 02:09:10;;;;;;;4.85;4.18;;;3.90;99.90;;;;;;5039865;28;20292;-77
2022/01/22 02:11:39;;;;;;;6.45;5.00;;;4.00;99.90;;;;;;5039394;28;20236;-78
2022/01/22 02:23:28;;;;;;;7.28;5.35;;;3.90;99.90;;;;;;5039208;28;20193;-77
2022/01/22 02:25:10;;;;;;;7.70;5.55;;;3.90;99.90;;;;;;5018501;28;20208;-79
2022/01/22 02:27:37;;;;;;;9.95;5.10;;;3.80;99.90;;;;;;5021134;28;20224;-79
2022/01/22 02:30:05;;;;;;;10.45;5.95;;;3.90;99.90;;;;;;5017426;28;20205;-80
2022/01/22 02:32:53;;;;;;;8.73;5.68;;;3.90;99.90;;;;;;5018384;28;20682;-79
2022/01/22 02:35:26;;;;;;;7.70;5.22;;;4.00;99.90;;;;;;5018974;28;20243;-79
2022/01/22 02:37:59;;;;;;;7.53;5.65;;;3.90;99.90;;;;;;5017974;28;20232;-79
2022/01/22 02:40:29;;;;;;;13.20;7.30;;;3.90;99.90;;;;;;5017079;28;20204;-79
2022/01/22 02:42:55;;;;;;;8.98;5.65;;;3.70;99.90;;;;;;5018268;28;20223;-79
2022/01/22 02:45:23;;;;;;;8.25;5.72;;;3.90;99.90;;;;;;5018355;28;20207;-79
2022/01/22 02:47:50;;;;;;;6.25;4.70;;;3.90;99.90;;;;;;5020488;28;20256;-79
2022/01/22 02:50:18;;;;;;;8.32;5.28;;;3.90;99.90;;;;;;5024751;28;20209;-79
2022/01/22 02:52:44;;;;;;;8.77;6.07;;;3.80;99.90;;;;;;5024830;28;20208;-79
2022/01/22 02:55:13;;;;;;;8.48;6.03;;;3.90;99.90;;;;;;5027224;28;20200;-80
2022/01/22 02:57:42;;;;;;;7.40;5.13;;;3.80;99.90;;;;;;5026444;28;20703;-79
2022/01/22 03:00:13;;;;;;;8.63;5.60;;;3.80;99.90;;;;;;5027246;28;20217;-79
2022/01/22 03:02:40;;;;;;;6.22;4.93;;;3.80;99.90;;;;;;5027114;28;20280;-79
2022/01/22 03:05:08;;;;;;;7.63;4.38;;;3.80;99.90;;;;;;5027646;28;20216;-81
2022/01/22 03:07:35;;;;;;;6.53;4.78;;;3.80;99.90;;;;;;5026936;28;20251;-79
2022/01/22 03:10:03;;;;;;;7.60;4.85;;;3.80;99.90;;;;;;5018429;28;20254;-79
2022/01/22 03:12:51;;;;;;;6.00;4.47;;;3.80;99.90;;;;;;5020922;28;20612;-79
2022/01/22 03:18:06;;;;;;;5.88;4.50;;;3.80;99.90;;;;;;5022283;28;20239;-78
2022/01/22 03:21:00;;;;;;;5.20;2.72;;;3.80;99.90;;;;;;5023929;28;20219;-78
2022/01/22 03:29:00;;;;;;;6.03;2.75;;;3.70;99.90;;;;;;5017844;28;20224;-78
2022/01/22 03:31:27;;;;;;;3.45;3.15;;;3.70;99.90;;;;;;5017575;28;20201;-79
2022/01/22 03:33:53;;;;;;;3.10;2.90;;;3.70;99.90;;;;;;5020541;28;20628;-78
2022/01/22 03:36:20;;;;;;;3.88;2.22;;;3.70;99.90;;;;;;5026183;28;20224;-78
2022/01/22 03:38:48;;;;;;;5.65;3.80;;;3.70;99.90;;;;;;5031546;28;20259;-78
2022/01/22 03:41:15;;;;;;;6.88;3.78;;;3.70;99.90;;;;;;5029204;28;20208;-78
2022/01/22 03:43:43;;;;;;;10.90;4.30;;;3.70;99.90;;;;;;5023949;28;20204;-78
2022/01/22 03:46:11;;;;;;;5.95;3.95;;;3.60;99.90;;;;;;5018636;28;20200;-78
2022/01/22 03:48:37;;;;;;;4.32;3.40;;;3.60;99.90;;;;;;5018457;28;20225;-78
2022/01/22 03:51:04;;;;;;;5.20;4.57;;;3.60;99.90;;;;;;5019973;28;20208;-78
2022/01/22 03:53:31;;;;;;;7.13;4.53;;;3.60;99.90;;;;;;5022167;28;20204;-78
2022/01/22 03:56:02;;;;;;;7.80;5.80;;;3.50;99.90;;;;;;5022246;28;20659;-79
2022/01/22 03:58:30;;;;;;;4.95;4.07;;;3.50;99.90;;;;;;5021080;28;20225;-78
2022/01/22 04:01:19;;;;;;;10.98;6.30;;;3.50;99.90;;;;;;5020327;28;20215;-78
2022/01/22 04:03:55;;;;;;;10.07;5.97;;;3.10;99.90;;;;;;5019882;28;20228;-78
2022/01/22 04:06:56;;;;;;;12.80;7.13;;;3.40;99.90;;;;;;5019819;28;20212;-79
2022/01/22 04:09:22;;;;;;;10.05;7.70;;;3.30;99.90;;;;;;5020434;28;20224;-78
2022/01/22 04:11:48;;;;;;;13.90;7.25;;;3.40;99.90;;;;;;5017834;28;20204;-78
2022/01/22 04:14:19;;;;;;;10.27;7.15;;;3.40;99.90;;;;;;5016412;28;20286;-78
2022/01/22 04:17:00;;;;;;;9.75;6.75;;;3.30;99.90;;;;;;5017203;28;20236;-78
2022/01/22 04:24:56;;;;;;;11.43;4.82;;;3.30;99.90;;;;;;5019610;28;20187;-78
2022/01/22 04:27:27;;;;;;;6.32;4.30;;;3.30;99.90;;;;;;5018960;28;20220;-78
2022/01/22 04:29:57;;;;;;;7.07;4.50;;;3.20;99.90;;;;;;5020946;28;20188;-78
2022/01/22 04:32:24;;;;;;;6.88;4.20;;;3.20;99.90;;;;;;5023897;28;20193;-79
2022/01/22 04:34:52;;;;;;;5.57;3.90;;;3.20;99.90;;;;;;5025784;28;20208;-79
2022/01/22 04:37:19;;;;;;;6.10;3.88;;;3.20;99.90;;;;;;5025531;28;20232;-79
2022/01/22 04:39:46;;;;;;;4.55;4.15;;;3.20;99.90;;;;;;5031954;28;20196;-79
2022/01/22 04:42:13;;;;;;;5.00;3.40;;;3.20;99.90;;;;;;5026070;28;20204;-78
2022/01/22 04:44:48;;;;;;;5.60;3.63;;;3.30;99.90;;;;;;5023386;28;20204;-79
2022/01/22 04:47:25;;;;;;;4.28;3.60;;;3.40;99.90;;;;;;5022704;28;20184;-79
2022/01/22 04:52:42;;;;;;;5.45;3.42;;;3.30;99.90;;;;;;5029963;28;20263;-79
2022/01/22 04:55:08;;;;;;;6.82;3.05;;;3.30;99.90;;;;;;5030071;28;20192;-79
2022/01/22 04:57:37;;;;;;;4.60;3.00;;;3.40;99.90;;;;;;5031845;28;20251;-78
2022/01/22 05:00:06;;;;;;;4.60;3.10;;;3.30;99.90;;;;;;5031020;28;20207;-79
2022/01/22 05:02:33;;;;;;;6.50;4.50;;;3.20;99.90;;;;;;5028957;28;20295;-79
2022/01/22 05:05:00;;;;;;;5.68;3.35;;;3.30;99.90;;;;;;5026237;28;20258;-78
2022/01/22 05:07:27;;;;;;;6.55;3.70;;;3.20;99.90;;;;;;5023909;28;20224;-78
2022/01/22 05:09:54;;;;;;;5.70;3.05;;;3.20;99.90;;;;;;5021868;28;20582;-79
2022/01/22 05:12:20;;;;;;;7.72;3.90;;;3.30;99.90;;;;;;5024152;28;20639;-79
2022/01/22 05:14:47;;;;;;;9.88;4.57;;;3.20;99.90;;;;;;5021586;28;20235;-79
2022/01/22 05:17:14;;;;;;;5.25;3.67;;;2.90;99.90;;;;;;5025038;28;20217;-78
2022/01/22 05:19:49;;;;;;;3.42;2.15;;;3.20;99.90;;;;;;5031661;28;20231;-79
2022/01/22 05:22:30;;;;;;;4.72;3.60;;;3.20;99.90;;;;;;5038988;28;20176;-78
2022/01/22 05:25:01;;;;;;;3.70;3.35;;;3.20;99.90;;;;;;5040866;28;20181;-76
2022/01/22 05:27:43;;;;;;;4.55;3.08;;;3.20;99.90;;;;;;5040766;28;20212;-78
2022/01/22 05:30:38;;;;;;;6.97;3.80;;;3.20;99.90;;;;;;5040778;28;20196;-77
2022/01/22 05:33:12;;;;;;;4.00;3.30;;;3.20;99.90;;;;;;5038211;28;20264;-80
2022/01/22 05:38:28;;;;;;;2.85;2.55;;;3.10;99.90;;;;;;5004563;28;20315;-79
2022/01/22 05:40:54;;;;;;;5.60;3.60;;;3.00;99.90;;;;;;5026153;28;20209;-79
2022/01/22 05:43:21;;;;;;;7.32;3.60;;;3.00;99.90;;;;;;5024537;28;20266;-80
2022/01/22 05:45:48;;;;;;;5.28;3.05;;;3.00;99.90;;;;;;5022309;28;20619;-79
2022/01/22 05:48:14;;;;;;;5.10;3.40;;;3.00;99.90;;;;;;5018832;28;20264;-80
2022/01/22 05:50:49;;;;;;;6.35;3.53;;;2.90;99.90;;;;;;5023772;28;20630;-79
2022/01/22 05:53:31;;;;;;;6.40;3.35;;;2.90;99.90;;;;;;5019755;28;20263;-80
2022/01/22 06:01:29;;;;;;;5.07;4.57;;;2.80;99.90;;;;;;5028366;28;20268;-79
2022/01/22 06:03:55;;;;;;;6.68;4.20;;;2.80;99.90;;;;;;5027916;28;20201;-78
2022/01/22 06:06:22;;;;;;;5.00;2.88;;;2.80;99.90;;;;;;5029394;28;20668;-79
2022/01/22 06:08:52;;;;;;;9.38;3.90;;;2.80;99.90;;;;;;5026335;28;20228;-79
2022/01/22 06:11:24;;;;;;;7.15;4.00;;;2.80;99.90;;;;;;5020510;28;20291;-79
2022/01/22 06:13:52;;;;;;;3.95;3.50;;;2.80;99.90;;;;;;5022183;28;20659;-78
2022/01/22 06:16:20;;;;;;;5.95;2.85;;;2.80;99.90;;;;;;5025937;28;20204;-79
2022/01/22 06:18:47;;;;;;;5.60;3.42;;;2.80;99.90;;;;;;5028539;28;20258;-79
2022/01/22 06:21:14;;;;;;;8.73;3.67;;;2.70;99.90;;;;;;5027015;28;20211;-79
2022/01/22 06:23:41;;;;;;;4.05;3.60;;;2.70;99.90;;;;;;5024045;28;20204;-80
2022/01/22 06:26:09;;;;;;;7.50;3.42;;;2.70;99.90;;;;;;5024871;28;20200;-79
2022/01/22 06:28:37;;;;;;;6.93;3.58;;;2.70;99.90;;;;;;5020740;28;20263;-79
2022/01/22 06:31:04;;;;;;;6.57;3.92;;;2.70;99.90;;;;;;5019018;28;20251;-79
2022/01/22 06:33:31;;;;;;;9.93;4.43;;;2.70;99.90;;;;;;5017647;28;20208;-80
2022/01/22 06:35:58;;;;;;;8.07;4.65;;;2.70;99.90;;;;;;5019808;28;20208;-80
2022/01/22 06:38:25;;;;;;;9.18;5.00;;;2.70;99.90;;;;;;5032073;22;20224;-76
2022/01/22 06:43:36;;;;;;;3.40;3.10;;;2.70;99.90;;;;;;5013976;28;20188;-78
2022/01/22 06:46:03;;;;;;;7.93;3.83;;;2.70;99.90;;;;;;5013702;28;20259;-77
2022/01/22 06:48:30;;;;;;;6.07;3.97;;;2.70;99.90;;;;;;5017476;28;20362;-77
2022/01/22 06:50:58;;;;;;;5.68;4.65;;;2.70;99.90;;;;;;5032196;28;20192;-77
2022/01/22 06:53:24;;;;;;;5.97;4.55;;;2.70;99.90;;;;;;5027926;28;20710;-76
2022/01/22 06:55:56;;;;;;;4.90;4.40;;;2.70;99.90;;;;;;5015882;28;20208;-76
2022/01/22 06:58:22;;;;;;;11.63;4.13;;;2.70;99.90;;;;;;5014061;28;20282;-77
2022/01/22 07:00:50;;;;;;;9.60;5.15;;;2.60;99.90;;;;;;5014027;28;20614;-76
2022/01/22 07:03:17;;;;;;;11.43;4.45;;;2.60;99.90;;;;;;5014106;28;20216;-76
2022/01/22 07:05:43;;;;;;;11.80;4.93;;;2.60;99.90;;;;;;5013628;28;20204;-77
2022/01/22 07:08:10;;;;;;;10.23;4.82;;;2.60;99.90;;;;;;5013772;28;20259;-77
2022/01/22 07:10:37;;;;;;;7.18;4.70;;;2.60;99.90;;;;;;5016222;28;20208;-77
2022/01/22 07:13:03;;;;;;;6.88;4.43;;;2.60;99.90;;;;;;5014135;28;20208;-77
2022/01/22 07:15:30;;;;;;;10.68;4.85;;;2.50;99.90;;;;;;5014312;28;20255;-77
2022/01/22 07:17:58;;;;;;;13.38;4.70;;;2.50;99.90;;;;;;5013946;28;20232;-77
2022/01/22 07:20:28;;;;;;;8.52;4.85;;;2.50;99.90;;;;;;5013899;28;20208;-76
2022/01/22 07:23:01;;;;;;;9.48;5.00;;;2.50;99.90;;;;;;5013771;28;20632;-77
2022/01/22 07:25:29;;;;;;;8.50;4.47;;;2.50;99.90;;;;;;5014289;28;20205;-77
2022/01/22 07:27:56;;;;;;;11.13;4.88;;;2.50;99.90;;;;;;5013515;28;20247;-77
2022/01/22 07:30:22;;;;;;;11.80;4.15;;;2.50;99.90;;;;;;5013463;28;20231;-76
2022/01/22 07:32:49;;;;;;;4.93;3.60;;;2.50;99.90;;;;;;5014481;28;20216;-76
2022/01/22 07:35:18;;;;;;;7.00;4.68;;;2.50;99.90;;;;;;5018018;28;20595;-76
2022/01/22 07:37:45;;;;;;;7.07;4.57;;;2.50;99.90;;;;;;5013281;28;20242;-76
2022/01/22 07:40:13;;;;;;;10.90;4.93;;;2.50;99.90;;;;;;5013797;28;20227;-76
2022/01/22 07:42:42;;;;;;;9.32;4.53;;;2.50;99.90;;;;;;5013376;28;20208;-77
2022/01/22 07:45:10;;;;;;;5.97;3.63;;;2.60;99.90;;;;;;5015308;28;20628;-77
2022/01/22 07:47:37;;;;;;;8.88;4.47;;;2.60;99.90;;;;;;5016053;28;20647;-77
2022/01/22 07:50:05;;;;;;;6.05;5.00;;;2.60;99.90;;;;;;5015254;28;20231;-77
2022/01/22 07:52:33;;;;;;;4.72;4.25;;;2.60;99.90;;;;;;5016493;28;20323;-77
2022/01/22 07:55:00;;;;;;;7.40;4.13;;;2.60;99.90;;;;;;5019310;28;20204;-76
2022/01/22 07:57:26;;;;;;;7.07;4.10;;;2.50;99.90;;;;;;5019610;28;20282;-77
2022/01/22 07:59:53;;;;;;;11.18;5.43;;;2.60;99.90;;;;;;5017825;28;20208;-77
2022/01/22 08:02:20;;;;;;;6.72;4.70;;;2.60;99.90;;;;;;5017326;28;20232;-77
2022/01/22 08:04:46;;;;;;;6.15;3.85;;;2.60;99.90;;;;;;5016796;28;20200;-77
2022/01/22 08:07:13;;;;;;;5.22;3.85;;;2.60;99.90;;;;;;5020645;28;20201;-76
2022/01/22 08:09:41;;;;;;;5.93;3.50;;;2.60;99.90;;;;;;5019545;28;20251;-77
2022/01/22 08:12:08;;;;;;;8.70;4.15;;;2.60;99.90;;;;;;5019457;28;20208;-76
2022/01/22 08:14:35;;;;;;;6.43;4.45;;;2.60;99.90;;;;;;5020493;28;20236;-78
2022/01/22 08:17:02;;;;;;;9.02;6.35;;;2.60;99.90;;;;;;5020759;28;20236;-78
2022/01/22 08:19:29;;;;;;;8.73;4.15;;;2.60;99.90;;;;;;5017791;28;20255;-78
2022/01/22 08:21:55;;;;;;;6.53;4.10;;;2.40;99.90;;;;;;5017784;28;20209;-78
2022/01/22 08:24:25;;;;;;;5.88;4.40;;;2.60;99.90;;;;;;5016312;28;20644;-77
2022/01/22 08:27:08;;;;;;;5.43;3.72;;;2.50;99.90;;;;;;5016256;28;20204;-77
2022/01/22 08:29:35;;;;;;;4.68;3.50;;;2.60;99.90;;;;;;5016288;28;20740;-77
2022/01/22 08:32:09;;;;;;;6.97;3.85;;;2.70;99.90;;;;;;5018207;28;20200;-78
2022/01/22 08:37:20;;;;;;;14.52;4.03;;;2.70;99.90;;;;;;5017387;28;20227;-78
2022/01/22 08:39:46;;;;;;;11.23;6.75;;;2.80;99.90;;;;;;5017959;28;20263;-78
2022/01/22 08:42:14;;;;;;;9.98;6.80;;;2.80;99.90;;;;;;5016185;28;20439;-77
2022/01/22 08:44:41;;;;;;;9.43;6.85;;;2.70;99.90;;;;;;5018649;28;20208;-78
2022/01/22 08:47:08;;;;;;;14.52;6.03;;;3.00;99.90;;;;;;5020694;28;20467;-78
2022/01/22 08:49:35;;;;;;;5.57;5.13;;;2.80;99.90;;;;;;5031124;28;20315;-79
2022/01/22 08:52:01;;;;;;;10.68;4.80;;;2.80;99.90;;;;;;5032168;28;20216;-79
2022/01/22 08:54:28;;;;;;;13.05;5.50;;;3.00;99.90;;;;;;5019994;28;20212;-79
2022/01/22 08:56:55;;;;;;;7.10;5.35;;;3.10;99.90;;;;;;5019382;28;20318;-78
2022/01/22 08:59:23;;;;;;;5.88;5.28;;;3.20;99.90;;;;;;5024775;28;20225;-79
2022/01/22 09:01:50;;;;;;;6.50;5.35;;;3.30;99.90;;;;;;5025011;28;20212;-79
2022/01/22 09:04:18;;;;;;;7.88;5.43;;;3.40;99.90;;;;;;5022443;28;20215;-79
2022/01/22 09:06:46;;;;;;;7.20;5.13;;;3.50;99.90;;;;;;5021079;28;20283;-78
2022/01/22 09:09:13;;;;;;;7.47;4.40;;;3.60;99.90;;;;;;5019577;28;20222;-80
2022/01/22 09:11:45;;;;;;;7.75;4.60;;;3.50;99.90;;;;;;5022164;28;20666;-79
2022/01/22 09:14:14;;;;;;;8.35;4.75;;;3.30;99.90;;;;;;5025556;28;20207;-77
2022/01/22 09:16:43;;;;;;;14.45;4.78;;;3.20;99.90;;;;;;5037893;28;20188;-82
2022/01/22 09:19:11;;;;;;;14.93;5.80;;;3.10;99.90;;;;;;5038526;28;20220;-82
2022/01/22 09:21:41;;;;;;;11.02;4.82;;;3.50;99.90;;;;;;5030818;28;20695;-81
2022/01/22 09:24:09;;;;;;;6.57;5.07;;;3.40;99.90;;;;;;5034711;28;20311;-80
2022/01/22 09:26:37;;;;;;;11.45;5.50;;;3.00;99.90;;;;;;5036406;28;20215;-82
2022/01/22 09:29:04;;;;;;;10.82;5.68;;;3.30;99.90;;;;;;5031669;28;20220;-82
2022/01/22 09:31:34;;;;;;;5.57;3.33;;;3.30;99.90;;;;;;5022014;28;20737;-81
2022/01/22 09:34:03;;;;;;;6.65;3.22;;;3.40;99.90;;;;;;5022335;28;20200;-79
2022/01/22 09:36:33;;;;;;;7.43;3.58;;;3.40;99.90;;;;;;5020427;28;20239;-80
2022/01/22 09:39:02;;;;;;;6.38;2.40;;;3.30;99.90;;;;;;5020366;28;20228;-80
2022/01/22 09:41:29;;;;;;;6.38;2.85;;;3.20;99.90;;;;;;5019943;28;20231;-79
2022/01/22 09:43:56;;;;;;;5.90;2.45;;;3.20;99.90;;;;;;5025449;28;20205;-79
2022/01/22 09:46:25;;;;;;;4.03;2.65;;;3.20;99.90;;;;;;5032462;28;20215;-79
2022/01/22 09:48:52;;;;;;;4.07;3.22;;;3.30;99.90;;;;;;5031348;28;20232;-80
2022/01/22 09:51:21;;;;;;;6.03;3.30;;;3.40;99.90;;;;;;5023919;28;20493;-82
2022/01/22 09:53:47;;;;;;;6.13;3.58;;;3.40;99.90;;;;;;5019869;28;20464;-80
2022/01/22 09:56:18;;;;;;;4.22;2.58;;;3.40;99.90;;;;;;5019793;28;20204;-82
2022/01/22 09:58:45;;;;;;;5.10;3.80;;;3.40;99.90;;;;;;5019869;28;20247;-80
2022/01/22 10:01:20;;;;;;;28.02;12.15;;;3.50;99.90;;;;;;5019885;28;20259;-81
2022/01/22 10:03:47;;;;;;;19.88;8.95;;;3.40;99.90;;;;;;5020250;28;20235;-80
2022/01/22 10:06:14;;;;;;;5.72;3.55;;;3.40;99.90;;;;;;5020493;28;20200;-80
2022/01/22 10:08:42;;;;;;;5.60;2.30;;;3.50;99.90;;;;;;5021978;28;20256;-79
2022/01/22 10:11:18;;;;;;;8.30;4.90;;;3.40;99.90;;;;;;5020403;28;20216;-80
2022/01/22 10:13:46;;;;;;;6.30;2.97;;;3.50;99.90;;;;;;5022704;28;20208;-80
2022/01/22 10:16:24;;;;;;;18.90;10.38;;;3.40;99.90;;;;;;5020669;28;20655;-81
2022/01/22 10:19:12;;;;;;;22.10;11.45;;;3.50;99.90;;;;;;5022938;28;20224;-80
2022/01/22 10:21:41;;;;;;;26.27;15.93;;;3.50;99.90;;;;;;5031078;28;20208;-82
2022/01/22 10:24:34;;;;;;;12.82;7.05;;;3.30;99.90;;;;;;5032132;28;20204;-80
2022/01/22 10:27:25;;;;;;;6.45;3.33;;;3.40;99.90;;;;;;5031464;28;20207;-78
2022/01/22 10:29:55;;;;;;;6.13;2.92;;;3.40;99.90;;;;;;5021011;28;20208;-80
2022/01/22 10:32:30;;;;;;;9.90;5.40;;;3.40;99.90;;;;;;5024887;28;20572;-79
2022/01/22 10:35:06;;;;;;;7.43;3.53;;;3.50;99.90;;;;;;5023573;28;20261;-78
2022/01/22 10:37:32;;;;;;;15.48;7.97;;;3.60;99.90;;;;;;5021372;28;20215;-79
2022/01/22 10:40:25;;;;;;;6.63;2.90;;;3.40;99.90;;;;;;5021314;28;20396;-79
2022/01/22 10:42:52;;;;;;;14.38;7.43;;;3.50;99.90;;;;;;5027823;28;20300;-78
2022/01/22 10:45:27;;;;;;;10.00;5.93;;;3.60;99.90;;;;;;5028123;28;20240;-79
2022/01/22 10:48:16;;;;;;;20.83;14.15;;;3.60;99.90;;;;;;5025193;28;20223;-80
2022/01/22 10:50:43;;;;;;;17.27;6.25;;;3.80;91.80;;;;;;5021111;28;20442;-80
2022/01/22 10:53:09;;;;;;;7.30;4.25;;;3.80;1.00;;;;;;5020791;28;20465;-81
2022/01/22 10:56:00;;;;;;;4.88;2.92;;;3.80;1.00;;;;;;5019690;28;20231;-80
2022/01/22 10:58:27;;;;;;;3.50;2.47;;;3.70;71.70;;;;;;5020475;28;20322;-80
2022/01/22 11:01:00;;;;;;;4.28;2.40;;;3.70;99.90;;;;;;5020268;28;20200;-80
2022/01/22 11:03:28;;;;;;;4.15;2.88;;;3.70;99.90;;;;;;5020574;28;20560;-80
2022/01/22 11:05:56;;;;;;;3.95;3.33;;;3.60;99.90;;;;;;5019786;28;20205;-79
2022/01/22 11:08:23;;;;;;;7.47;2.30;;;3.70;99.90;;;;;;5020655;28;20270;-78
2022/01/22 11:10:51;;;;;;;3.88;2.55;;;3.70;31.60;;;;;;5020663;28;20204;-79
2022/01/22 11:13:20;;;;;;;4.30;2.75;;;3.70;99.90;;;;;;5020114;28;20204;-82
2022/01/22 11:15:50;;;;;;;4.13;3.70;;;3.60;99.90;;;;;;5019820;28;20211;-80
2022/01/22 11:18:18;;;;;;;2.53;2.33;;;3.50;99.90;;;;;;5019691;28;20230;-80
2022/01/22 11:20:46;;;;;;;6.22;4.25;;;3.30;1.00;;;;;;5019639;28;20204;-79
2022/01/22 11:23:14;;;;;;;4.30;2.05;;;3.60;1.00;;;;;;5021428;28;20258;-80
2022/01/22 11:25:42;;;;;;;2.17;2.03;;;3.70;1.00;;;;;;5019467;28;20200;-79
2022/01/22 11:28:11;;;;;;;2.70;2.33;;;3.80;1.00;;;;;;5020171;28;20573;-80
2022/01/22 11:30:38;;;;;;;8.32;2.60;;;3.70;83.20;;;;;;5023809;28;20580;-79
2022/01/22 11:33:09;;;;;;;4.43;2.50;;;3.70;99.90;;;;;;5024871;28;20262;-81
2022/01/22 11:35:45;;;;;;;6.15;2.88;;;3.60;99.90;;;;;;5022799;28;20187;-80
2022/01/22 11:38:16;;;;;;;6.65;2.80;;;3.60;99.90;;;;;;5024410;28;20235;-80
2022/01/22 11:40:43;;;;;;;4.05;2.40;;;3.70;99.90;;;;;;5023773;28;20192;-81
2022/01/22 11:43:13;;;;;;;7.40;2.60;;;3.70;1.00;;;;;;5024462;28;20228;-80
2022/01/22 11:45:44;;;;;;;7.25;2.88;;;4.10;1.00;;;;;;5023194;28;20204;-80
2022/01/22 11:48:13;;;;;;;6.55;3.35;;;4.00;1.00;;;;;;5022456;28;20325;-79
2022/01/22 11:50:41;;;;;;;4.50;3.20;;;4.10;99.90;;;;;;5022400;28;20291;-79
2022/01/22 11:53:26;;;;;;;3.97;3.10;;;4.10;99.90;;;;;;5025175;28;20722;-78
2022/01/22 11:56:24;;;;;;;4.00;2.50;;;4.00;1.00;;;;;;5025192;28;20200;-81
2022/01/22 11:59:24;;;;;;;5.00;2.60;;;3.90;1.00;;;;;;5024008;28;20228;-79
2022/01/22 12:01:54;;;;;;;4.55;2.70;;;4.00;1.00;;;;;;5033202;28;20189;-80
2022/01/22 12:04:23;;;;;;;5.13;2.90;;;4.10;1.00;;;;;;5028559;28;20206;-80
2022/01/22 12:07:12;;;;;;;4.43;3.15;;;4.10;1.00;;;;;;5024621;28;20232;-79
2022/01/22 12:09:50;;;;;;;2.30;2.05;;;3.80;99.90;;;;;;5026942;28;20715;-81
2022/01/22 12:15:16;;;;;;;11.63;2.80;;;4.10;1.00;;;;;;5028044;28;20190;-79
2022/01/22 12:17:59;;;;;;;4.65;2.40;;;4.30;99.90;;;;;;5028583;28;20192;-78
2022/01/22 12:23:54;;;;;;;4.05;2.85;;;4.10;1.00;;;;;;5024420;28;20183;-79
2022/01/22 12:26:51;;;;;;;4.22;3.05;;;4.10;1.00;;;;;;5024128;28;20239;-81
2022/01/22 12:29:35;;;;;;;2.25;2.03;;;4.10;1.00;;;;;;5022626;28;20228;-79
2022/01/22 12:32:18;;;;;;;4.50;3.08;;;4.20;99.90;;;;;;5022766;28;20539;-78
2022/01/22 12:35:09;;;;;;;3.10;2.67;;;4.30;1.00;;;;;;5024164;28;20559;-80
2022/01/22 12:40:34;;;;;;;3.80;2.47;;;4.30;99.90;;;;;;5053344;22;20242;-82
2022/01/22 12:43:06;;;;;;;4.28;2.38;;;3.80;37.20;;;;;;5023669;28;20817;-83
2022/01/22 12:45:34;;;;;;;3.65;2.25;;;4.00;99.90;;;;;;5022295;28;20189;-83
2022/01/22 12:48:04;;;;;;;3.53;2.70;;;4.10;1.00;;;;;;5023690;28;20280;-81
2022/01/22 12:50:34;;;;;;;7.57;2.25;;;4.00;1.00;;;;;;5022716;28;20212;-82
2022/01/22 12:53:07;;;;;;;1.95;1.85;;;4.20;99.90;;;;;;5032044;28;20189;-78
2022/01/22 12:55:50;;;;;;;2.78;2.42;;;4.20;1.00;;;;;;5037432;28;20193;-80
2022/01/22 12:58:24;;;;;;;2.17;1.98;;;4.20;99.90;;;;;;5036857;28;20525;-81
2022/01/22 13:00:52;;;;;;;5.00;2.15;;;4.30;1.00;;;;;;5025105;28;20216;-84
2022/01/22 13:03:38;;;;;;;3.40;2.95;;;4.00;1.00;;;;;;5023204;28;20288;-83
2022/01/22 13:06:05;;;;;;;4.28;2.42;;;3.90;1.00;;;;;;5024572;28;20188;-83
2022/01/22 13:08:33;;;;;;;4.97;2.70;;;4.20;1.00;;;;;;5022867;28;20229;-83
2022/01/22 13:11:02;;;;;;;5.63;3.35;;;3.90;1.00;;;;;;5021554;28;20736;-82
2022/01/22 13:13:29;;;;;;;6.32;5.70;;;4.10;99.90;;;;;;5035992;28;20224;-82
2022/01/22 13:16:05;;;;;;;4.20;2.63;;;4.10;1.00;;;;;;5036573;28;20201;-84
2022/01/22 13:18:48;;;;;;;5.78;2.58;;;4.00;1.00;;;;;;5024116;28;20238;-81
2022/01/22 13:21:17;;;;;;;6.20;2.85;;;4.10;1.00;;;;;;5034538;28;20204;-81
2022/01/22 13:23:46;;;;;;;10.32;3.30;;;4.00;99.90;;;;;;5036142;28;20235;-83
2022/01/22 13:26:13;;;;;;;6.13;4.30;;;4.00;99.90;;;;;;5026189;28;20208;-83
2022/01/22 13:28:41;;;;;;;6.05;3.80;;;4.20;1.00;;;;;;5023227;28;20239;-83
2022/01/22 13:31:13;;;;;;;7.80;3.80;;;4.10;99.90;;;;;;5023926;28;20711;-82
2022/01/22 13:33:47;;;;;;;7.65;4.60;;;4.30;1.00;;;;;;5024125;28;20429;-82
2022/01/22 13:36:26;;;;;;;8.82;3.70;;;4.20;99.90;;;;;;5024009;28;20211;-83
2022/01/22 13:49:50;;;;;;;9.07;4.18;;;4.30;99.90;;;;;;5023896;28;20223;-82
2022/01/22 13:52:19;;;;;;;5.35;3.75;;;4.30;99.90;;;;;;5030035;28;20231;-79
2022/01/22 13:54:48;;;;;;;4.60;4.05;;;4.30;99.90;;;;;;5032866;28;20264;-82
2022/01/22 13:57:16;;;;;;;12.80;3.83;;;4.20;1.00;;;;;;5032774;28;20231;-80
2022/01/22 13:59:45;;;;;;;8.48;4.28;;;4.20;99.90;;;;;;5027427;28;20232;-81
2022/01/22 14:02:30;;;;;;;7.70;4.07;;;4.40;99.90;;;;;;5023514;28;20208;-82
2022/01/22 14:05:03;;;;;;;5.38;3.88;;;4.00;1.00;;;;;;5028699;28;20199;-82
2022/01/22 14:07:34;;;;;;;5.53;4.00;;;4.20;1.00;;;;;;5032912;28;20201;-82
2022/01/22 14:10:03;;;;;;;6.43;4.43;;;4.20;1.00;;;;;;5021025;28;20255;-82
2022/01/22 14:12:36;;;;;;;7.18;4.00;;;4.10;1.00;;;;;;5020606;28;20204;-83
2022/01/22 14:15:15;;;;;;;7.78;3.83;;;4.10;1.00;;;;;;5021683;28;20211;-83
2022/01/22 14:18:06;;;;;;;6.75;4.32;;;4.10;1.00;;;;;;5024553;28;20438;-83
2022/01/22 14:20:35;;;;;;;8.48;4.45;;;4.20;1.00;;;;;;5022032;28;20212;-81
2022/01/22 14:23:05;;;;;;;7.93;4.25;;;4.20;99.90;;;;;;5023688;28;20219;-83
2022/01/22 14:25:34;;;;;;;5.80;4.35;;;4.10;1.00;;;;;;5021016;28;20215;-83
2022/01/22 14:28:04;;;;;;;6.97;4.53;;;4.10;1.00;;;;;;5021939;28;20204;-83